createdAt,value
2022-08-02T00:02:21.609Z,99735.88
2022-08-02T00:06:25.283Z,99748.31
2022-08-02T00:10:28.549Z,99757.16
2022-08-02T00:14:34.135Z,99766.22
2022-08-02T00:18:39.147Z,99758.44
2022-08-02T00:22:44.356Z,99772.28
2022-08-02T00:26:47.541Z,99765.41
2022-08-02T00:30:50.963Z,99776.19
2022-08-02T00:34:55.794Z,99775.31
2022-08-02T00:38:59.004Z,99770.81
2022-08-02T00:43:04.330Z,99781.59
2022-08-02T00:47:07.678Z,99784.28
2022-08-02T00:51:13.121Z,99778.31
2022-08-02T00:55:17.484Z,99793.53
2022-08-02T00:59:26.731Z,99794.78
2022-08-02T01:03:29.856Z,99800.16
2022-08-02T01:07:34.414Z,99809.22
2022-08-02T01:11:37.998Z,99810.38
2022-08-02T01:15:47.376Z,99818.56
2022-08-02T01:19:56.317Z,99816.00
2022-08-02T01:24:14.219Z,99830.31
2022-08-02T01:28:31.528Z,99830.31
2022-08-02T01:32:40.395Z,99830.53
2022-08-02T01:36:47.111Z,99835.94
2022-08-02T01:40:52.728Z,99831.63
2022-08-02T01:45:00.154Z,99827.22
2022-08-02T01:49:09.523Z,99843.16
2022-08-02T01:53:15.431Z,99837.78
2022-08-02T01:57:21.245Z,99836.06
2022-08-02T02:01:26.084Z,99834.19
2022-08-02T02:05:32.260Z,99829.84
2022-08-02T02:09:49.163Z,99830.78
2022-08-02T02:13:54.284Z,99816.50
2022-08-02T02:18:13.172Z,99816.63
2022-08-02T02:22:16.967Z,99814.06
2022-08-02T02:26:31.080Z,99816.06
2022-08-02T02:30:38.664Z,99824.09
2022-08-02T02:34:45.588Z,99832.19
2022-08-02T02:38:50.873Z,99831.44
2022-08-02T02:42:54.449Z,99828.81
2022-08-02T02:46:59.414Z,99830.63
2022-08-02T02:51:06.323Z,99832.47
2022-08-02T02:55:12.940Z,99832.53
2022-08-02T02:59:19.323Z,99836.13
2022-08-02T03:03:23.428Z,99830.88
2022-08-02T03:07:30.144Z,99829.91
2022-08-02T03:11:33.796Z,99841.44
2022-08-02T03:15:38.692Z,99837.03
2022-08-02T03:19:41.793Z,99831.78
2022-08-02T03:23:46.443Z,99837.16
2022-08-02T03:27:49.662Z,99831.91
2022-08-02T03:31:53.480Z,99827.66
2022-08-02T03:35:59.723Z,99832.28
2022-08-02T03:40:08.890Z,99838.53
2022-08-02T03:44:13.731Z,99839.50
2022-08-02T03:48:34.587Z,99851.94
2022-08-02T03:52:38.710Z,99869.75
2022-08-02T03:56:43.347Z,99870.63
2022-08-02T04:00:46.798Z,99878.91
2022-08-02T04:04:50.093Z,99877.25
2022-08-02T04:08:53.366Z,99887.25
2022-08-02T04:12:59.164Z,99892.59
2022-08-02T04:17:05.822Z,99896.09
2022-08-02T04:21:14.901Z,99903.19
2022-08-02T04:25:21.347Z,99912.03
2022-08-02T04:29:43.890Z,99912.91
2022-08-02T04:33:50.476Z,99923.50
2022-08-02T04:38:08.195Z,99925.25
2022-08-02T04:42:22.129Z,99922.63
2022-08-02T04:46:27.673Z,99913.75
2022-08-02T04:50:30.860Z,99910.13
2022-08-02T04:54:34.115Z,99907.34
2022-08-02T04:58:40.373Z,99917.94
2022-08-02T05:02:45.556Z,99927.59
2022-08-02T05:06:48.679Z,99940.84
2022-08-02T05:10:51.825Z,99941.63
2022-08-02T05:14:55.203Z,99946.84
2022-08-02T05:19:00.077Z,99944.91
2022-08-02T05:23:04.019Z,99949.16
2022-08-02T05:27:17.222Z,99944.31
2022-08-02T05:31:25.125Z,99951.94
2022-08-02T05:35:29.999Z,99960.28
2022-08-02T05:39:33.155Z,99966.81
2022-08-02T05:43:36.249Z,99968.84
2022-08-02T05:47:40.623Z,99970.94
2022-08-02T05:51:56.432Z,99959.56
2022-08-02T05:56:10.155Z,99959.59
2022-08-02T06:00:15.232Z,99967.34
2022-08-02T06:04:25.915Z,99961.63
2022-08-02T06:08:47.553Z,99964.88
2022-08-02T06:12:52.972Z,99962.94
2022-08-02T06:16:57.815Z,99969.66
2022-08-02T06:22:32.651Z,99971.53
2022-08-02T06:25:49.862Z,99980.22
2022-08-02T06:29:55.053Z,99974.88
2022-08-02T06:33:58.777Z,99982.47
2022-08-02T06:38:03.236Z,99984.41
2022-08-02T06:42:13.911Z,99975.78
2022-08-02T06:46:37.680Z,99978.88
2022-08-02T06:50:45.343Z,99987.38
2022-08-02T06:54:48.462Z,99988.66
2022-08-02T06:58:53.098Z,99994.31
2022-08-02T07:02:56.291Z,100012.34
2022-08-02T07:06:59.567Z,100004.22
2022-08-02T07:11:03.039Z,100011.25
2022-08-02T07:15:10.160Z,100013.16
2022-08-02T07:19:13.650Z,100019.97
2022-08-02T07:23:16.986Z,100021.53
2022-08-02T07:27:20.120Z,100022.19
2022-08-02T07:31:24.769Z,100022.13
2022-08-02T07:35:28.787Z,100020.88
2022-08-02T07:39:34.877Z,100030.34
2022-08-02T07:43:38.897Z,100031.84
2022-08-02T07:47:44.526Z,100027.13
2022-08-02T07:51:48.164Z,100032.03
2022-08-02T07:55:51.312Z,100024.72
2022-08-02T07:59:54.484Z,100020.06
2022-08-02T08:03:58.981Z,100021.31
2022-08-02T08:08:02.202Z,100023.44
2022-08-02T08:12:06.282Z,100026.06
2022-08-02T08:16:09.697Z,100020.34
2022-08-02T08:20:15.985Z,100023.16
2022-08-02T08:24:19.470Z,100029.06
2022-08-02T08:28:22.951Z,100038.63
2022-08-02T08:32:27.129Z,100032.94
2022-08-02T08:36:31.992Z,100036.38
2022-08-02T08:40:36.662Z,100029.16
2022-08-02T08:44:39.939Z,100025.66
2022-08-02T08:48:47.672Z,100028.97
2022-08-02T08:52:58.655Z,100027.06
2022-08-02T08:57:05.563Z,100032.38
2022-08-02T09:01:09.275Z,100030.53
2022-08-02T09:05:14.249Z,100025.13
2022-08-02T09:09:18.811Z,100017.28
2022-08-02T09:13:38.109Z,100019.59
2022-08-02T09:17:51.971Z,100013.19
2022-08-02T09:22:03.818Z,100013.63
2022-08-02T09:26:10.464Z,100007.31
2022-08-02T09:30:16.834Z,100017.19
2022-08-02T09:34:20.433Z,100011.56
2022-08-02T09:38:25.837Z,100014.75
2022-08-02T09:42:31.402Z,100015.78
2022-08-02T09:46:38.048Z,100005.84
2022-08-02T09:50:42.883Z,100000.81
2022-08-02T09:54:46.381Z,100001.78
2022-08-02T09:58:54.996Z,100001.19
2022-08-02T10:03:08.939Z,99998.44
2022-08-02T10:07:14.664Z,100001.28
2022-08-02T10:11:18.630Z,99984.44
2022-08-02T10:15:27.267Z,99975.41
2022-08-02T10:20:00.095Z,99968.19
2022-08-02T10:23:56.053Z,99969.09
2022-08-02T10:28:06.488Z,99973.38
2022-08-02T10:32:15.445Z,99975.13
2022-08-02T10:36:20.341Z,99964.75
2022-08-02T10:40:27.391Z,99972.25
2022-08-02T10:44:32.589Z,99968.31
2022-08-02T10:53:36.966Z,99976.53
2022-08-02T10:57:40.021Z,99961.69
2022-08-02T11:01:45.297Z,99952.06
2022-08-02T11:06:02.877Z,99966.16
2022-08-02T11:10:32.335Z,99953.66
2022-08-02T11:14:37.503Z,99943.38
2022-08-02T11:19:03.195Z,99943.66
2022-08-02T11:23:44.130Z,99946.63
2022-08-02T11:27:49.560Z,99945.97
2022-08-02T11:31:52.653Z,99944.25
2022-08-02T11:36:02.783Z,99936.38
2022-08-02T11:40:19.695Z,99924.22
2022-08-02T11:44:24.040Z,99923.47
2022-08-02T11:48:35.010Z,99919.75
2022-08-02T11:52:39.927Z,99924.22
2022-08-02T11:56:44.415Z,99925.13
2022-08-02T12:00:48.088Z,99912.19
2022-08-02T12:04:58.137Z,99908.97
2022-08-02T12:09:05.907Z,99907.75
2022-08-02T12:13:22.723Z,99910.47
2022-08-02T12:17:47.653Z,99897.19
2022-08-02T12:22:07.249Z,99895.28
2022-08-02T12:26:16.117Z,99899.25
2022-08-02T12:30:27.790Z,99898.81
2022-08-02T12:34:32.586Z,99881.94
2022-08-02T12:38:35.778Z,99885.78
2022-08-02T12:42:48.215Z,99884.28
2022-08-02T12:47:02.158Z,99876.63
2022-08-02T12:51:24.178Z,99872.09
2022-08-02T12:56:02.482Z,99870.66
2022-08-02T12:59:53.371Z,99875.03
2022-08-02T13:04:10.815Z,99865.22
2022-08-02T13:08:16.645Z,99865.56
2022-08-02T13:12:19.721Z,99863.69
2022-08-02T13:16:30.590Z,99863.81
2022-08-02T13:20:38.174Z,99859.38
2022-08-02T13:24:56.221Z,99859.41
2022-08-02T13:29:00.312Z,99861.22
2022-08-02T13:33:03.542Z,99845.78
2022-08-02T13:37:08.090Z,99854.53
2022-08-02T13:41:11.592Z,99850.34
2022-08-02T13:45:14.854Z,99841.31
2022-08-02T13:49:19.777Z,99835.66
2022-08-02T13:53:25.303Z,99843.31
2022-08-02T13:57:28.282Z,99831.47
2022-08-02T14:01:33.076Z,99833.66
2022-08-02T14:05:47.452Z,99818.75
2022-08-02T14:09:53.374Z,99818.50
2022-08-02T14:13:56.355Z,99819.38
2022-08-02T14:17:59.393Z,99825.91
2022-08-02T14:22:11.039Z,99828.00
2022-08-02T14:26:26.775Z,99820.84
2022-08-02T14:30:30.439Z,99818.00
2022-08-02T14:34:33.517Z,99812.31
2022-08-02T14:38:37.814Z,99812.19
2022-08-02T14:42:42.260Z,99797.38
2022-08-02T14:46:45.509Z,99799.97
2022-08-02T14:50:48.732Z,99796.41
2022-08-02T14:54:51.965Z,99798.22
2022-08-02T14:58:56.380Z,99796.41
2022-08-02T15:02:59.831Z,99792.19
2022-08-02T15:07:02.997Z,99785.78
2022-08-02T15:11:07.285Z,99784.66
2022-08-02T15:15:12.040Z,99787.38
2022-08-02T15:19:15.384Z,99782.28
2022-08-02T15:23:19.544Z,99772.91
2022-08-02T15:27:23.233Z,99782.41
2022-08-02T15:31:33.245Z,99786.13
2022-08-02T15:35:36.846Z,99781.66
2022-08-02T15:39:40.211Z,99778.09
2022-08-02T15:44:00.693Z,99782.78
2022-08-02T15:48:07.403Z,99781.28
2022-08-02T15:52:11.380Z,99785.22
2022-08-02T15:56:14.578Z,99790.63
2022-08-02T16:00:19.220Z,99793.94
2022-08-02T16:04:23.902Z,99804.66
2022-08-02T16:08:26.905Z,99796.00
2022-08-02T16:12:32.318Z,99803.41
2022-08-02T16:16:37.409Z,99806.47
2022-08-02T16:20:42.073Z,99803.88
2022-08-02T16:24:45.099Z,99798.91
2022-08-02T16:28:48.269Z,99793.72
2022-08-02T16:32:51.307Z,99802.22
2022-08-02T16:36:55.770Z,99802.53
2022-08-02T16:41:01.508Z,99798.22
2022-08-02T16:45:05.268Z,99802.91
2022-08-02T16:50:03.830Z,99804.00
2022-08-02T16:53:37.208Z,99797.06
2022-08-02T16:57:56.727Z,99800.72
2022-08-02T17:02:11.141Z,99809.88
2022-08-02T17:06:16.076Z,99808.13
2022-08-02T17:10:20.696Z,99801.09
2022-08-02T17:14:23.685Z,99804.16
2022-08-02T17:18:30.245Z,99808.84
2022-08-02T17:22:36.903Z,99825.31
2022-08-02T17:26:41.664Z,99816.44
2022-08-02T17:30:45.266Z,99821.13
2022-08-02T17:34:56.616Z,99809.75
2022-08-02T17:39:04.757Z,99810.09
2022-08-02T17:43:14.771Z,99819.75
2022-08-02T17:47:19.896Z,99820.19
2022-08-02T17:52:15.418Z,99818.69
2022-08-02T17:55:51.141Z,99822.84
2022-08-02T18:00:04.158Z,99827.81
2022-08-02T18:04:07.898Z,99826.41
2022-08-02T18:08:10.900Z,99841.13
2022-08-02T18:12:18.368Z,99840.09
2022-08-02T18:16:23.609Z,99846.91
2022-08-02T18:20:27.195Z,99845.94
2022-08-02T18:24:30.414Z,99848.22
2022-08-02T18:28:34.696Z,99854.06
2022-08-02T18:33:55.813Z,99859.97
2022-08-02T18:37:03.805Z,99852.47
2022-08-02T18:41:12.654Z,99858.34
2022-08-02T18:45:19.816Z,99866.97
2022-08-02T18:49:25.515Z,99871.16
2022-08-02T18:53:41.725Z,99873.44
2022-08-02T18:58:01.965Z,99882.50
2022-08-02T19:02:09.433Z,99889.22
2022-08-02T19:06:13.946Z,99897.53
2022-08-02T19:10:22.956Z,99897.81
2022-08-02T19:14:27.741Z,99900.97
2022-08-02T19:18:31.507Z,99901.31
2022-08-02T19:22:37.148Z,99904.22
2022-08-02T19:26:40.889Z,99901.84
2022-08-02T19:30:44.350Z,99909.19
2022-08-02T19:34:47.285Z,99908.63
2022-08-02T19:38:52.332Z,99906.50
2022-08-02T19:44:26.938Z,99907.84
2022-08-02T19:47:20.413Z,99919.19
2022-08-02T19:51:54.683Z,99920.63
2022-08-02T19:56:06.603Z,99916.69
2022-08-02T20:00:21.415Z,99911.81
2022-08-02T20:05:08.130Z,99916.72
2022-08-02T20:14:40.966Z,99909.69
2022-08-02T20:19:23.800Z,99910.81
2022-08-02T20:23:49.215Z,99910.16
2022-08-02T21:08:13.885Z,99909.66
2022-08-02T21:12:18.898Z,99902.81
2022-08-02T21:16:32.615Z,99908.38
2022-08-02T21:20:36.961Z,99912.34
2022-08-02T21:24:40.337Z,99913.59
2022-08-02T21:28:45.661Z,99907.66
2022-08-02T21:32:54.573Z,99906.19
2022-08-02T21:36:57.763Z,99910.00
2022-08-02T21:41:00.960Z,99913.06
2022-08-02T21:45:17.449Z,99918.69
2022-08-02T21:49:40.582Z,99925.31
2022-08-02T21:54:18.574Z,99919.38
2022-08-02T21:58:10.921Z,99928.00
2022-08-02T22:02:18.273Z,99925.69
2022-08-02T22:06:21.692Z,99928.00
2022-08-02T22:10:27.169Z,99930.00
2022-08-02T22:14:30.341Z,99926.59
2022-08-02T22:18:35.015Z,99932.06
2022-08-02T22:22:38.345Z,99930.47
2022-08-02T22:26:41.329Z,99933.50
2022-08-02T22:30:45.424Z,99933.75
2022-08-02T22:34:57.253Z,99935.81
2022-08-02T22:39:00.978Z,99935.19
2022-08-02T22:43:03.924Z,99939.00
2022-08-02T22:47:14.850Z,99938.28
2022-08-02T22:51:19.895Z,99942.16
2022-08-02T22:55:23.411Z,99939.78
2022-08-02T22:59:36.533Z,99942.78
2022-08-02T23:03:44.178Z,99936.91
2022-08-02T23:07:48.665Z,99937.28
2022-08-02T23:11:51.867Z,99938.47
2022-08-02T23:16:13.080Z,99945.13
2022-08-02T23:20:16.299Z,99939.09
2022-08-02T23:24:22.581Z,99939.31
2022-08-02T23:28:25.606Z,99950.31
2022-08-02T23:32:28.980Z,99947.84
2022-08-02T23:36:32.834Z,99954.41
2022-08-02T23:40:40.518Z,99944.72
2022-08-02T23:44:44.199Z,99944.06
2022-08-02T23:48:47.375Z,99956.88
2022-08-02T23:52:51.012Z,99952.66
2022-08-02T23:56:55.762Z,99943.06
